Time;durP1;ratioP1;P1;durP2;ratioP2;P2;SDS_P1;SDS_P2;PMS_P1;PMS_P2;Temp;Humidity;BMP_temperature;BMP_pressure;BME280_temperature;BME280_humidity;BME280_pressure;Samples;Min_cycle;Max_cycle;Signal;HPM_P1;HPM_P2
2022/10/11 00:00:25;;;;;;;4.83;0.80;;;19.70;99.90;;;;;;5076406;28;20694;-71
2022/10/11 00:02:52;;;;;;;4.40;1.23;;;19.80;99.90;;;;;;5085538;28;20183;-72
2022/10/11 00:05:20;;;;;;;4.00;1.10;;;20.00;99.90;;;;;;5080216;28;20167;-73
2022/10/11 00:07:47;;;;;;;4.43;1.30;;;20.40;99.90;;;;;;5091137;28;20186;-73
2022/10/11 00:10:15;;;;;;;4.17;1.00;;;20.60;99.90;;;;;;5095806;28;20270;-70
2022/10/11 00:12:42;;;;;;;1.73;0.80;;;20.90;99.90;;;;;;5095539;28;20279;-70
2022/10/11 00:15:18;;;;;;;3.37;1.20;;;21.50;99.90;;;;;;5095707;28;20265;-71
2022/10/11 00:17:46;;;;;;;7.37;1.20;;;22.00;99.90;;;;;;5095460;28;20186;-70
2022/10/11 00:20:14;;;;;;;3.73;1.00;;;21.90;99.90;;;;;;5077204;28;20233;-72
2022/10/11 00:22:42;;;;;;;1.63;0.83;;;21.50;99.90;;;;;;5094783;28;20177;-70
2022/10/11 00:25:12;;;;;;;6.80;1.13;;;21.30;99.90;;;;;;5093322;28;20663;-69
2022/10/11 00:27:39;;;;;;;4.63;1.30;;;21.20;99.90;;;;;;5079575;28;20182;-71
2022/10/11 00:30:08;;;;;;;4.27;1.20;;;21.30;99.90;;;;;;5081304;28;20305;-71
2022/10/11 00:32:37;;;;;;;4.43;1.10;;;21.10;99.90;;;;;;5078274;28;20217;-72
2022/10/11 00:35:06;;;;;;;2.37;0.80;;;21.00;99.90;;;;;;5091331;28;20192;-71
2022/10/11 00:37:36;;;;;;;2.83;1.00;;;20.90;99.90;;;;;;5086772;28;20178;-71
2022/10/11 00:40:06;;;;;;;6.03;1.50;;;20.90;99.90;;;;;;5089658;28;20221;-71
2022/10/11 00:42:34;;;;;;;4.83;0.93;;;21.20;99.90;;;;;;5075735;28;20241;-70
2022/10/11 00:45:25;;;;;;;7.20;1.50;;;21.40;99.90;;;;;;5095027;28;20290;-70
2022/10/11 00:48:01;;;;;;;3.03;1.23;;;21.60;99.90;;;;;;5080655;28;20596;-70
2022/10/11 00:50:32;;;;;;;8.07;1.33;;;21.80;99.90;;;;;;5074667;28;20180;-70
2022/10/11 00:53:03;;;;;;;5.37;1.20;;;21.50;99.90;;;;;;5082575;28;20653;-69
2022/10/11 00:55:36;;;;;;;2.90;1.20;;;21.20;99.90;;;;;;5094318;28;20187;-68
2022/10/11 00:58:04;;;;;;;2.70;1.20;;;20.80;99.90;;;;;;5094935;28;20189;-69
2022/10/11 01:00:32;;;;;;;3.77;1.10;;;20.70;99.90;;;;;;5093531;28;20339;-71
2022/10/11 01:03:01;;;;;;;2.57;1.00;;;20.70;99.90;;;;;;5093251;28;20171;-69
2022/10/11 01:05:30;;;;;;;5.93;1.00;;;20.60;99.90;;;;;;5093089;28;20202;-75
2022/10/11 01:08:01;;;;;;;4.43;1.33;;;20.60;99.90;;;;;;5075171;28;20216;-77
2022/10/11 01:10:29;;;;;;;3.37;1.30;;;20.40;99.90;;;;;;5093421;28;20183;-77
2022/10/11 01:13:20;;;;;;;5.70;1.27;;;20.50;99.90;;;;;;5093275;28;20182;-74
2022/10/11 01:16:00;;;;;;;2.80;1.47;;;20.50;99.90;;;;;;5093293;28;20209;-77
2022/10/11 01:18:53;;;;;;;4.97;1.50;;;20.40;99.90;;;;;;5092887;28;20715;-73
2022/10/11 01:21:35;;;;;;;3.53;1.17;;;20.20;99.90;;;;;;5090872;28;20181;-74
2022/10/11 01:24:19;;;;;;;1.93;1.23;;;20.10;99.90;;;;;;5073052;28;20176;-70
2022/10/11 01:27:15;;;;;;;2.13;1.00;;;19.90;99.90;;;;;;5073901;28;20177;-76
2022/10/11 01:29:51;;;;;;;5.60;1.20;;;19.80;99.90;;;;;;5031819;28;20723;-70
2022/10/11 01:32:53;;;;;;;4.93;1.00;;;19.80;99.90;;;;;;5080277;28;20234;-72
2022/10/11 01:35:56;;;;;;;4.27;1.03;;;19.80;99.90;;;;;;5063144;28;20636;-75
2022/10/11 01:38:33;;;;;;;2.93;1.43;;;19.80;99.90;;;;;;5081888;28;20652;-70
2022/10/11 01:41:08;;;;;;;3.03;1.03;;;19.70;99.90;;;;;;5091113;28;20183;-71
2022/10/11 01:43:38;;;;;;;4.93;1.27;;;19.50;99.90;;;;;;5078206;28;20282;-72
2022/10/11 01:46:09;;;;;;;1.43;1.00;;;19.50;99.90;;;;;;5072651;28;20684;-70
2022/10/11 01:48:52;;;;;;;4.03;1.27;;;19.40;99.90;;;;;;5068993;28;20278;-70
2022/10/11 01:51:42;;;;;;;4.40;1.17;;;19.50;99.90;;;;;;5087426;28;20267;-74
2022/10/11 01:54:22;;;;;;;3.53;1.30;;;19.60;99.90;;;;;;5066340;28;20528;-77
2022/10/11 01:57:23;;;;;;;3.23;1.40;;;19.70;99.90;;;;;;5075811;28;20287;-73
2022/10/11 02:00:00;;;;;;;2.37;0.97;;;19.90;99.90;;;;;;4937752;28;4073716;-74
2022/10/11 02:02:37;;;;;;;2.93;1.33;;;20.10;99.90;;;;;;5091156;28;20633;-70
2022/10/11 02:05:19;;;;;;;7.60;1.20;;;20.00;99.90;;;;;;5063549;28;20249;-76
2022/10/11 02:07:55;;;;;;;3.37;1.30;;;19.90;99.90;;;;;;5094940;28;20187;-70
2022/10/11 02:10:31;;;;;;;5.03;1.00;;;20.00;99.90;;;;;;5093537;28;20543;-71
2022/10/11 02:13:24;;;;;;;2.73;1.10;;;20.00;99.90;;;;;;5093135;28;20180;-71
2022/10/11 02:15:53;;;;;;;3.77;1.27;;;20.60;99.90;;;;;;5093370;28;20305;-77
2022/10/11 02:18:26;;;;;;;3.47;1.10;;;21.00;99.90;;;;;;5093196;28;20172;-70
2022/10/11 02:20:56;;;;;;;3.07;1.27;;;20.80;99.90;;;;;;5081798;28;20176;-72
2022/10/11 02:23:32;;;;;;;3.80;1.10;;;20.70;99.90;;;;;;5081159;28;20273;-70
2022/10/11 02:26:03;;;;;;;2.57;1.37;;;21.00;99.90;;;;;;5092868;28;20694;-71
2022/10/11 02:28:33;;;;;;;2.30;1.30;;;21.30;99.90;;;;;;5086528;28;20225;-71
2022/10/11 02:31:04;;;;;;;2.30;1.33;;;21.30;99.90;;;;;;5086598;28;20507;-71
2022/10/11 02:33:38;;;;;;;4.13;1.20;;;21.20;99.90;;;;;;5089138;28;20537;-72
2022/10/11 02:36:11;;;;;;;5.17;1.10;;;21.20;99.90;;;;;;5078501;28;20668;-71
2022/10/11 02:38:52;;;;;;;2.50;1.20;;;21.20;99.90;;;;;;5091159;28;20179;-71
2022/10/11 02:41:35;;;;;;;1.77;0.90;;;21.10;99.90;;;;;;5090158;28;20183;-72
2022/10/11 02:44:31;;;;;;;4.20;1.40;;;21.00;99.90;;;;;;5072860;28;20223;-71
2022/10/11 02:47:00;;;;;;;4.33;1.30;;;20.70;99.90;;;;;;5087073;28;20172;-71
2022/10/11 02:49:28;;;;;;;2.07;1.00;;;20.60;99.90;;;;;;5092704;28;20255;-73
2022/10/11 02:51:58;;;;;;;10.57;1.57;;;20.50;99.90;;;;;;5092754;28;20211;-71
2022/10/11 02:54:26;;;;;;;5.53;1.20;;;20.40;99.90;;;;;;5092423;28;20254;-75
2022/10/11 02:56:54;;;;;;;4.77;1.17;;;20.40;99.90;;;;;;5087142;28;20185;-70
2022/10/11 02:59:22;;;;;;;4.50;1.20;;;20.30;99.90;;;;;;5081996;28;20227;-71
2022/10/11 03:01:49;;;;;;;5.03;1.13;;;20.10;99.90;;;;;;5076851;28;20190;-70
2022/10/11 03:04:16;;;;;;;2.53;1.30;;;20.00;99.90;;;;;;5078769;28;20210;-70
2022/10/11 03:06:44;;;;;;;3.20;1.20;;;20.10;99.90;;;;;;5085011;28;20201;-70
2022/10/11 03:09:11;;;;;;;3.40;1.30;;;20.20;99.90;;;;;;5074027;28;20215;-69
2022/10/11 03:11:39;;;;;;;6.37;1.30;;;20.20;99.90;;;;;;5092188;28;20301;-70
2022/10/11 03:14:06;;;;;;;6.83;1.50;;;20.20;99.90;;;;;;5092175;28;20173;-69
2022/10/11 03:16:34;;;;;;;3.87;1.53;;;20.10;99.90;;;;;;5092240;28;20178;-72
2022/10/11 03:19:01;;;;;;;2.60;1.03;;;20.10;99.90;;;;;;5092159;28;20548;-71
2022/10/11 03:21:29;;;;;;;3.90;1.00;;;20.10;99.90;;;;;;5091663;28;20215;-70
2022/10/11 03:23:56;;;;;;;2.67;1.10;;;19.90;99.90;;;;;;5082611;28;20244;-70
2022/10/11 03:26:23;;;;;;;2.73;1.20;;;19.90;99.90;;;;;;5085600;28;20183;-70
2022/10/11 03:28:51;;;;;;;2.63;1.20;;;19.90;99.90;;;;;;5091971;28;20237;-70
2022/10/11 03:31:19;;;;;;;4.93;1.30;;;19.80;99.90;;;;;;5092152;28;20176;-76
2022/10/11 03:33:46;;;;;;;3.47;1.50;;;19.80;99.90;;;;;;5083944;28;20188;-72
2022/10/11 03:36:14;;;;;;;4.27;1.20;;;19.70;99.90;;;;;;5071725;28;20213;-71
2022/10/11 03:38:41;;;;;;;5.93;1.30;;;19.60;99.90;;;;;;5053795;28;20206;-71
2022/10/11 03:41:09;;;;;;;3.43;1.20;;;19.70;99.90;;;;;;5078466;28;20211;-71
2022/10/11 03:43:36;;;;;;;5.30;1.40;;;19.70;99.90;;;;;;5075059;28;20181;-71
2022/10/11 03:46:04;;;;;;;2.07;1.20;;;19.50;99.90;;;;;;5091891;28;20187;-71
2022/10/11 03:48:31;;;;;;;1.33;1.13;;;19.40;99.90;;;;;;5091600;28;20533;-77
2022/10/11 03:50:59;;;;;;;2.47;1.30;;;19.30;99.90;;;;;;5091940;28;20178;-70
2022/10/11 03:53:26;;;;;;;3.60;1.30;;;19.30;99.90;;;;;;5085277;28;20178;-73
2022/10/11 03:55:54;;;;;;;4.90;1.47;;;19.50;99.90;;;;;;5054334;28;20192;-72
2022/10/11 03:58:23;;;;;;;4.33;1.60;;;19.60;99.90;;;;;;5071515;28;20186;-76
2022/10/11 04:00:51;;;;;;;3.50;1.37;;;19.70;99.90;;;;;;5071211;28;20334;-71
2022/10/11 04:03:19;;;;;;;4.57;1.80;;;19.70;99.90;;;;;;5076239;28;20187;-71
2022/10/11 04:05:46;;;;;;;3.63;1.40;;;19.70;99.90;;;;;;5091609;28;20933;-71
2022/10/11 04:08:14;;;;;;;5.13;2.07;;;19.70;99.90;;;;;;5091525;28;20206;-73
2022/10/11 04:10:41;;;;;;;3.70;1.50;;;19.70;99.90;;;;;;5091700;28;20173;-75
2022/10/11 04:13:10;;;;;;;4.23;1.10;;;19.60;99.90;;;;;;5087965;28;20175;-71
2022/10/11 04:15:40;;;;;;;7.37;1.90;;;19.50;99.90;;;;;;5071331;28;20180;-70
2022/10/11 04:18:07;;;;;;;3.30;1.30;;;19.50;99.90;;;;;;5068114;28;20186;-70
2022/10/11 04:20:35;;;;;;;1.87;1.10;;;19.60;99.90;;;;;;5091241;28;20180;-71
2022/10/11 04:23:02;;;;;;;6.30;1.50;;;19.50;99.90;;;;;;5089915;28;20175;-71
2022/10/11 04:25:30;;;;;;;2.87;1.30;;;19.70;99.90;;;;;;5091927;28;20211;-72
2022/10/11 04:27:58;;;;;;;4.00;1.30;;;19.80;99.90;;;;;;5092108;28;20261;-73
2022/10/11 04:30:26;;;;;;;8.13;1.47;;;19.80;99.90;;;;;;5090695;28;20579;-70
2022/10/11 04:32:54;;;;;;;7.57;1.40;;;19.60;99.90;;;;;;5071979;28;20181;-71
2022/10/11 04:35:21;;;;;;;3.13;1.07;;;19.60;99.90;;;;;;5091684;28;20180;-72
2022/10/11 04:37:49;;;;;;;3.80;1.13;;;19.70;99.90;;;;;;5056072;28;20185;-71
2022/10/11 04:40:16;;;;;;;6.63;1.23;;;19.60;99.90;;;;;;5076597;28;20200;-70
2022/10/11 04:42:44;;;;;;;4.13;1.47;;;19.60;99.90;;;;;;5085881;28;20180;-74
2022/10/11 04:45:11;;;;;;;5.13;1.10;;;19.60;99.90;;;;;;5104078;28;20175;-76
2022/10/11 04:47:39;;;;;;;3.60;1.00;;;19.60;99.90;;;;;;5093046;28;20176;-75
2022/10/11 04:50:07;;;;;;;4.30;1.30;;;19.60;99.90;;;;;;5074683;28;20214;-77
2022/10/11 04:52:35;;;;;;;2.67;1.53;;;19.70;99.90;;;;;;5080779;28;20234;-72
2022/10/11 04:55:02;;;;;;;2.47;1.40;;;19.60;99.90;;;;;;5093595;28;20186;-71
2022/10/11 04:57:30;;;;;;;4.67;1.87;;;19.50;99.90;;;;;;5089715;28;20188;-72
2022/10/11 04:59:58;;;;;;;3.00;1.47;;;19.50;99.90;;;;;;5065712;28;20706;-72
2022/10/11 05:02:25;;;;;;;5.27;2.07;;;19.40;99.90;;;;;;5079838;28;20822;-72
2022/10/11 05:04:52;;;;;;;3.40;1.60;;;19.50;99.90;;;;;;5091141;28;20186;-72
2022/10/11 05:07:20;;;;;;;3.13;1.00;;;19.50;99.90;;;;;;5091339;28;20181;-72
2022/10/11 05:09:47;;;;;;;3.17;1.33;;;19.60;99.90;;;;;;5074448;28;20207;-71
2022/10/11 05:12:15;;;;;;;3.27;1.20;;;19.60;99.90;;;;;;5080690;28;20188;-72
2022/10/11 05:14:42;;;;;;;3.60;1.60;;;19.60;99.90;;;;;;5074296;28;20184;-71
2022/10/11 05:17:10;;;;;;;4.03;1.67;;;19.70;99.90;;;;;;5081023;28;20198;-71
2022/10/11 05:19:37;;;;;;;2.60;1.20;;;19.80;99.90;;;;;;5087570;28;20187;-72
2022/10/11 05:22:04;;;;;;;3.80;1.30;;;20.00;99.90;;;;;;5094070;28;20191;-72
2022/10/11 05:24:32;;;;;;;3.27;1.27;;;20.00;99.90;;;;;;5094307;28;20175;-72
2022/10/11 05:26:59;;;;;;;3.37;1.43;;;20.00;99.90;;;;;;5093468;28;20211;-72
2022/10/11 05:29:27;;;;;;;2.80;1.10;;;20.10;99.90;;;;;;5080102;28;20203;-72
2022/10/11 05:31:54;;;;;;;1.97;1.10;;;20.10;99.90;;;;;;5094356;28;20174;-73
2022/10/11 05:34:22;;;;;;;3.67;1.07;;;20.20;99.90;;;;;;5094172;28;20179;-73
2022/10/11 05:36:49;;;;;;;2.70;1.17;;;20.40;99.90;;;;;;5094065;28;20183;-73
2022/10/11 05:39:16;;;;;;;7.33;1.67;;;20.50;99.90;;;;;;5075285;28;20201;-74
2022/10/11 05:41:44;;;;;;;3.30;1.20;;;20.60;99.90;;;;;;5073621;28;20212;-73
2022/10/11 05:44:13;;;;;;;3.37;1.33;;;20.50;99.90;;;;;;5073793;28;20175;-73
2022/10/11 05:46:41;;;;;;;3.33;1.20;;;20.20;99.90;;;;;;5083390;28;20179;-73
2022/10/11 05:49:08;;;;;;;1.83;1.00;;;20.00;99.90;;;;;;5091860;28;20227;-73
2022/10/11 05:51:35;;;;;;;2.77;1.20;;;20.00;99.90;;;;;;5093960;28;20556;-73
2022/10/11 05:54:03;;;;;;;3.43;1.30;;;19.90;99.90;;;;;;5093901;28;20289;-73
2022/10/11 05:56:30;;;;;;;4.13;1.47;;;19.70;99.90;;;;;;5090761;28;20197;-73
2022/10/11 05:58:58;;;;;;;5.97;1.60;;;19.50;99.90;;;;;;5088341;28;20192;-73
2022/10/11 06:01:27;;;;;;;2.67;1.30;;;19.40;99.90;;;;;;5093608;28;20539;-72
2022/10/11 06:03:54;;;;;;;2.97;1.10;;;19.10;99.90;;;;;;5092439;28;20258;-73
2022/10/11 06:06:22;;;;;;;5.30;1.53;;;19.00;99.90;;;;;;5093629;28;20266;-73
2022/10/11 06:08:50;;;;;;;3.83;1.60;;;18.90;99.90;;;;;;5079579;28;20237;-73
2022/10/11 06:11:20;;;;;;;3.10;1.30;;;18.90;99.90;;;;;;5074330;28;20187;-73
2022/10/11 06:13:48;;;;;;;3.90;1.10;;;18.90;99.90;;;;;;5073237;28;20234;-73
2022/10/11 06:16:15;;;;;;;4.73;1.27;;;18.90;99.90;;;;;;5077409;28;20186;-73
2022/10/11 06:18:43;;;;;;;6.23;1.50;;;19.00;99.90;;;;;;5092615;28;20699;-74
2022/10/11 06:21:11;;;;;;;1.67;1.07;;;19.40;99.90;;;;;;5093064;28;20171;-74
2022/10/11 06:23:39;;;;;;;3.20;1.60;;;19.70;99.90;;;;;;5061370;28;20219;-74
2022/10/11 06:26:08;;;;;;;2.73;1.57;;;19.90;99.90;;;;;;5074356;28;20176;-73
2022/10/11 06:28:36;;;;;;;3.20;1.30;;;20.20;99.90;;;;;;5082313;28;20564;-74
2022/10/11 06:31:05;;;;;;;3.50;1.33;;;20.10;99.90;;;;;;5073061;28;20187;-73
2022/10/11 06:33:33;;;;;;;3.17;1.60;;;20.10;99.90;;;;;;5072729;28;20180;-72
2022/10/11 06:36:07;;;;;;;2.73;1.27;;;19.90;99.90;;;;;;5082929;28;20270;-73
2022/10/11 06:38:34;;;;;;;2.20;0.90;;;19.70;99.90;;;;;;5089125;28;20620;-70
2022/10/11 06:41:13;;;;;;;4.80;1.17;;;19.50;99.90;;;;;;5093527;28;20218;-73
2022/10/11 06:43:41;;;;;;;4.27;1.60;;;19.40;99.90;;;;;;5091033;28;20180;-72
2022/10/11 06:46:08;;;;;;;2.50;1.33;;;19.40;99.90;;;;;;5091734;28;20206;-70
2022/10/11 06:48:40;;;;;;;4.83;1.30;;;19.40;99.90;;;;;;5088720;28;20703;-73
2022/10/11 06:51:08;;;;;;;4.03;1.50;;;19.40;99.90;;;;;;5092178;28;20658;-72
2022/10/11 06:53:35;;;;;;;4.70;1.43;;;19.40;99.90;;;;;;5092432;28;20164;-73
2022/10/11 06:56:08;;;;;;;2.50;1.20;;;19.30;99.90;;;;;;5092252;28;20552;-73
2022/10/11 06:58:36;;;;;;;4.83;1.20;;;19.30;99.90;;;;;;5071291;28;20611;-73
2022/10/11 07:01:06;;;;;;;4.70;1.47;;;19.20;99.90;;;;;;5091656;28;20773;-71
2022/10/11 07:03:34;;;;;;;3.13;1.30;;;19.00;99.90;;;;;;5088410;28;20605;-73
2022/10/11 07:06:06;;;;;;;3.80;1.57;;;18.90;99.90;;;;;;5091732;28;20181;-72
2022/10/11 07:08:34;;;;;;;3.70;1.43;;;18.70;99.90;;;;;;5089024;28;20234;-72
2022/10/11 07:11:13;;;;;;;3.23;1.30;;;18.50;99.90;;;;;;5091919;28;20175;-72
2022/10/11 07:13:42;;;;;;;3.23;1.30;;;18.40;99.90;;;;;;5090867;28;20175;-73
2022/10/11 07:16:12;;;;;;;8.43;1.43;;;18.30;99.90;;;;;;5089947;28;20179;-72
2022/10/11 07:18:40;;;;;;;5.40;1.40;;;18.10;99.90;;;;;;5090826;28;20664;-72
2022/10/11 07:21:11;;;;;;;4.00;1.40;;;17.90;99.90;;;;;;5091542;28;20236;-72
2022/10/11 07:23:39;;;;;;;3.87;1.40;;;17.90;99.90;;;;;;5092125;28;20167;-73
2022/10/11 07:26:07;;;;;;;6.57;1.20;;;17.90;99.90;;;;;;5089756;28;20618;-72
2022/10/11 07:28:35;;;;;;;2.77;1.03;;;17.80;99.90;;;;;;5078645;28;20213;-73
2022/10/11 07:31:20;;;;;;;5.57;1.20;;;17.80;99.90;;;;;;5091257;28;20176;-73
2022/10/11 07:33:48;;;;;;;4.87;1.13;;;17.80;99.90;;;;;;5071735;28;20563;-73
2022/10/11 07:36:16;;;;;;;4.30;1.40;;;17.80;99.90;;;;;;5071538;28;20186;-72
2022/10/11 07:38:45;;;;;;;6.43;1.30;;;17.80;99.90;;;;;;5079496;28;20199;-73
2022/10/11 07:41:13;;;;;;;4.47;1.37;;;17.70;99.90;;;;;;5078745;28;20605;-72
2022/10/11 07:43:45;;;;;;;4.47;1.30;;;17.80;99.90;;;;;;5085590;28;20662;-71
2022/10/11 07:46:13;;;;;;;5.33;1.33;;;17.80;99.90;;;;;;5091270;28;20176;-72
2022/10/11 07:48:41;;;;;;;2.67;1.30;;;17.70;99.90;;;;;;5072266;28;20199;-72
2022/10/11 07:51:18;;;;;;;2.90;1.13;;;17.70;99.90;;;;;;5091168;28;20171;-72
2022/10/11 07:53:48;;;;;;;3.20;1.37;;;17.70;99.90;;;;;;5088736;28;20617;-73
2022/10/11 07:56:22;;;;;;;2.27;1.23;;;17.70;99.90;;;;;;5093591;28;20189;-72
2022/10/11 07:58:54;;;;;;;2.13;1.00;;;17.60;99.90;;;;;;5090180;28;20533;-73
2022/10/11 08:01:22;;;;;;;4.33;1.30;;;17.70;99.90;;;;;;5088462;28;20214;-72
2022/10/11 08:03:51;;;;;;;3.13;1.20;;;17.70;99.90;;;;;;5074373;28;20343;-71
2022/10/11 08:06:21;;;;;;;4.80;1.37;;;17.60;99.90;;;;;;5090212;28;20182;-72
2022/10/11 08:08:49;;;;;;;3.53;1.60;;;17.50;99.90;;;;;;5090113;28;20207;-72
2022/10/11 08:11:31;;;;;;;2.40;1.33;;;17.50;99.90;;;;;;5090186;28;20204;-72
2022/10/11 08:13:59;;;;;;;6.33;1.40;;;17.40;99.90;;;;;;5090832;28;20527;-70
2022/10/11 08:16:27;;;;;;;3.20;1.30;;;17.40;99.90;;;;;;5090781;28;20175;-71
2022/10/11 08:18:55;;;;;;;4.27;1.70;;;17.40;99.90;;;;;;5090269;28;20178;-72
2022/10/11 08:21:23;;;;;;;7.33;1.60;;;17.30;99.90;;;;;;5088482;28;20179;-72
2022/10/11 08:23:51;;;;;;;5.47;1.67;;;17.30;99.90;;;;;;5090939;28;20248;-71
2022/10/11 08:26:18;;;;;;;3.23;1.53;;;17.20;99.90;;;;;;5079447;28;20183;-72
2022/10/11 08:28:46;;;;;;;2.83;1.47;;;17.20;99.90;;;;;;5082503;28;20271;-72
2022/10/11 08:31:15;;;;;;;6.33;1.60;;;17.10;99.90;;;;;;5095354;28;20175;-72
2022/10/11 08:33:43;;;;;;;9.47;1.73;;;17.10;99.90;;;;;;5094906;28;20309;-72
2022/10/11 08:36:11;;;;;;;6.77;2.10;;;17.10;99.90;;;;;;5095373;28;20172;-72
2022/10/11 08:38:40;;;;;;;7.50;1.73;;;17.00;99.90;;;;;;5090984;28;20277;-73
2022/10/11 08:41:30;;;;;;;3.57;1.63;;;16.90;99.90;;;;;;5075606;28;20213;-73
2022/10/11 08:44:18;;;;;;;3.80;1.33;;;16.70;99.90;;;;;;5087646;28;20198;-73
2022/10/11 08:46:50;;;;;;;2.43;1.20;;;16.60;99.90;;;;;;5095373;28;20178;-73
2022/10/11 08:49:22;;;;;;;5.73;1.87;;;16.40;99.90;;;;;;5094288;28;20211;-73
2022/10/11 08:52:03;;;;;;;5.13;2.20;;;16.40;99.90;;;;;;5095219;28;20613;-73
2022/10/11 08:54:57;;;;;;;5.17;1.87;;;16.40;99.90;;;;;;5095204;28;20190;-73
2022/10/11 08:57:28;;;;;;;7.10;2.10;;;16.40;99.90;;;;;;5095335;28;20176;-73
2022/10/11 09:00:16;;;;;;;3.63;1.43;;;16.40;99.90;;;;;;5076116;28;20230;-73
2022/10/11 09:03:11;;;;;;;4.93;1.83;;;16.30;99.90;;;;;;5094754;28;20225;-73
2022/10/11 09:06:22;;;;;;;10.50;2.00;;;16.30;99.90;;;;;;5094929;28;20180;-73
2022/10/11 09:09:10;;;;;;;6.57;2.33;;;16.20;99.90;;;;;;5103204;28;20251;-73
2022/10/11 09:11:54;;;;;;;4.30;1.57;;;16.20;99.90;;;;;;5095150;28;20649;-72
2022/10/11 09:14:40;;;;;;;3.50;2.07;;;16.10;99.90;;;;;;5091468;28;20182;-72
2022/10/11 09:17:27;;;;;;;6.73;1.93;;;16.00;99.90;;;;;;5094202;28;20272;-73
2022/10/11 09:20:19;;;;;;;3.97;2.20;;;16.00;99.90;;;;;;5058840;28;20276;-73
2022/10/11 09:22:57;;;;;;;7.40;2.30;;;15.90;99.90;;;;;;5074269;28;20172;-73
2022/10/11 09:25:33;;;;;;;10.40;1.87;;;15.70;99.90;;;;;;5074354;28;20528;-73
2022/10/11 09:28:10;;;;;;;7.53;2.47;;;15.70;99.90;;;;;;5074041;28;20186;-73
2022/10/11 09:30:46;;;;;;;3.70;1.90;;;15.80;99.90;;;;;;5078421;28;20187;-73
2022/10/11 09:33:26;;;;;;;6.47;2.27;;;15.70;99.90;;;;;;5094281;28;20193;-73
2022/10/11 09:35:55;;;;;;;6.77;2.30;;;15.60;99.90;;;;;;5082360;28;20237;-72
2022/10/11 09:38:25;;;;;;;4.30;1.97;;;15.50;99.90;;;;;;5073730;28;20191;-72
2022/10/11 09:41:29;;;;;;;6.43;2.60;;;15.40;99.90;;;;;;5076122;28;20179;-72
2022/10/11 09:43:56;;;;;;;5.97;2.53;;;15.30;99.90;;;;;;5073937;28;20180;-71
2022/10/11 09:46:56;;;;;;;4.07;2.27;;;15.20;99.90;;;;;;5073771;28;20266;-71
2022/10/11 09:49:31;;;;;;;11.10;2.63;;;15.10;99.90;;;;;;5051430;28;20583;-72
2022/10/11 09:52:02;;;;;;;5.17;2.37;;;15.10;99.90;;;;;;5073901;28;20171;-72
2022/10/11 09:54:45;;;;;;;5.03;2.10;;;15.00;99.90;;;;;;5075131;28;20296;-72
2022/10/11 09:57:39;;;;;;;4.10;2.40;;;15.00;99.90;;;;;;5085181;28;20233;-72
2022/10/11 10:00:20;;;;;;;5.00;2.07;;;14.90;99.90;;;;;;5081113;28;20232;-72
2022/10/11 10:02:55;;;;;;;5.07;2.20;;;14.90;99.90;;;;;;5076390;28;20649;-71
2022/10/11 10:05:36;;;;;;;4.97;2.93;;;14.90;99.90;;;;;;5074977;28;20183;-72
2022/10/11 10:08:09;;;;;;;5.03;2.37;;;15.00;99.90;;;;;;5073975;28;20183;-71
2022/10/11 10:10:42;;;;;;;6.37;2.50;;;15.00;99.90;;;;;;5074318;28;20188;-73
2022/10/11 10:13:36;;;;;;;5.53;2.30;;;15.10;99.90;;;;;;5086964;28;20943;-72
2022/10/11 10:16:04;;;;;;;3.97;2.07;;;15.10;99.90;;;;;;5055714;28;20183;-72
2022/10/11 10:18:36;;;;;;;4.40;2.23;;;15.20;99.90;;;;;;5093451;28;20174;-72
2022/10/11 10:21:07;;;;;;;4.17;2.10;;;15.20;99.90;;;;;;5065657;28;20721;-72
2022/10/11 10:23:36;;;;;;;4.07;2.20;;;15.30;99.90;;;;;;5073272;28;20171;-72
2022/10/11 10:26:22;;;;;;;4.73;2.03;;;15.30;99.90;;;;;;5089960;28;20183;-71
2022/10/11 10:29:15;;;;;;;4.17;2.20;;;15.40;99.90;;;;;;5091551;28;20230;-71
2022/10/11 10:31:48;;;;;;;5.33;2.37;;;15.30;99.90;;;;;;5092368;28;20190;-72
2022/10/11 10:34:34;;;;;;;6.07;1.90;;;15.40;99.90;;;;;;5093101;28;20640;-72
2022/10/11 10:37:28;;;;;;;5.53;1.97;;;15.40;99.90;;;;;;5074924;28;20194;-72
2022/10/11 10:40:27;;;;;;;7.13;2.23;;;15.40;99.90;;;;;;5062963;28;20200;-71
2022/10/11 10:42:55;;;;;;;3.47;1.87;;;15.40;99.90;;;;;;5067297;28;20199;-72
2022/10/11 10:45:29;;;;;;;5.33;2.07;;;15.40;99.90;;;;;;5072564;28;20215;-72
2022/10/11 10:48:19;;;;;;;4.20;2.10;;;15.30;99.90;;;;;;5077598;28;20198;-72
2022/10/11 10:51:23;;;;;;;4.47;2.30;;;15.30;99.90;;;;;;5088483;28;20271;-71
2022/10/11 10:54:13;;;;;;;2.73;1.77;;;15.30;99.90;;;;;;5031610;28;20269;-71
2022/10/11 10:56:56;;;;;;;4.57;1.93;;;15.40;99.90;;;;;;5072624;28;20179;-72
2022/10/11 10:59:44;;;;;;;4.63;1.90;;;15.40;99.90;;;;;;5072203;28;20234;-71
2022/10/11 11:02:12;;;;;;;2.83;2.07;;;15.40;99.90;;;;;;5083030;28;20274;-72
2022/10/11 11:04:46;;;;;;;4.77;2.10;;;15.40;99.90;;;;;;5093963;28;20221;-72
2022/10/11 11:07:16;;;;;;;3.13;1.93;;;15.40;99.90;;;;;;5082304;28;20217;-72
2022/10/11 11:10:01;;;;;;;6.50;2.73;;;15.40;99.90;;;;;;5073694;28;20227;-71
2022/10/11 11:12:44;;;;;;;3.77;2.10;;;15.40;99.90;;;;;;5074001;28;20582;-71
2022/10/11 11:15:16;;;;;;;5.40;2.00;;;15.40;99.90;;;;;;5073504;28;20242;-72
2022/10/11 11:17:52;;;;;;;3.80;2.00;;;15.50;99.90;;;;;;5073622;28;20172;-72
2022/10/11 11:20:33;;;;;;;8.40;2.33;;;15.50;99.90;;;;;;5073276;28;20175;-72
2022/10/11 11:23:22;;;;;;;5.23;1.83;;;15.50;99.90;;;;;;5055560;28;20655;-72
2022/10/11 11:26:14;;;;;;;4.63;1.90;;;15.50;99.90;;;;;;5073433;28;20192;-72
2022/10/11 11:28:47;;;;;;;6.07;2.03;;;15.50;99.90;;;;;;5073789;28;20203;-72
2022/10/11 11:31:14;;;;;;;5.07;1.90;;;15.50;99.90;;;;;;5073917;28;20184;-72
2022/10/11 11:33:54;;;;;;;10.67;2.40;;;15.50;99.90;;;;;;5073480;28;20186;-72
2022/10/11 11:36:56;;;;;;;4.50;2.00;;;15.40;99.90;;;;;;5073934;28;20636;-72
2022/10/11 11:39:30;;;;;;;7.70;2.30;;;15.40;99.90;;;;;;5073579;28;20222;-72
2022/10/11 11:42:27;;;;;;;4.00;2.07;;;15.40;99.90;;;;;;5073528;28;20182;-72
2022/10/11 11:44:55;;;;;;;4.73;2.03;;;15.30;99.90;;;;;;5042388;28;20566;-72
2022/10/11 11:47:26;;;;;;;12.13;3.10;;;15.30;99.90;;;;;;5073292;28;20207;-72
2022/10/11 11:50:21;;;;;;;5.67;2.80;;;15.30;99.90;;;;;;5073505;28;20212;-72
2022/10/11 11:53:04;;;;;;;6.23;2.63;;;15.20;99.90;;;;;;5072624;28;20325;-72
2022/10/11 11:56:01;;;;;;;4.30;2.53;;;15.20;99.90;;;;;;5055130;28;20540;-72
2022/10/11 11:58:37;;;;;;;7.73;2.40;;;15.10;99.90;;;;;;5073199;28;20217;-72
2022/10/11 12:01:23;;;;;;;6.10;2.20;;;15.10;99.90;;;;;;5074069;28;20300;-72
2022/10/11 12:03:54;;;;;;;8.07;3.53;;;15.10;99.90;;;;;;5077691;28;20187;-72
2022/10/11 12:06:30;;;;;;;4.20;2.13;;;15.00;99.90;;;;;;5059225;28;20550;-72
2022/10/11 12:09:21;;;;;;;6.27;2.00;;;15.00;99.90;;;;;;5077341;28;20218;-72
2022/10/11 12:11:59;;;;;;;5.37;2.90;;;14.90;99.90;;;;;;5077079;28;20175;-72
2022/10/11 12:14:35;;;;;;;5.47;2.27;;;14.90;99.90;;;;;;5077259;28;20262;-72
2022/10/11 12:17:15;;;;;;;6.40;2.40;;;14.80;99.90;;;;;;5076949;28;20202;-72
2022/10/11 12:20:30;;;;;;;4.07;2.57;;;14.80;99.90;;;;;;5059058;28;20227;-72
2022/10/11 12:23:23;;;;;;;12.27;2.47;;;14.80;99.90;;;;;;4995614;28;20270;-72
2022/10/11 12:26:18;;;;;;;5.13;2.60;;;14.90;99.90;;;;;;5076513;28;20255;-72
2022/10/11 12:29:15;;;;;;;8.23;2.93;;;14.90;99.90;;;;;;5076354;28;20215;-72
2022/10/11 12:31:44;;;;;;;5.13;3.33;;;14.80;99.90;;;;;;5076886;28;20175;-71
2022/10/11 12:34:29;;;;;;;7.03;3.33;;;14.80;99.90;;;;;;5076513;28;20262;-71
2022/10/11 12:36:57;;;;;;;5.97;2.90;;;14.70;99.90;;;;;;5077204;28;20168;-72
2022/10/11 12:39:24;;;;;;;5.67;2.87;;;14.70;99.90;;;;;;5076391;28;20313;-72
2022/10/11 12:42:05;;;;;;;4.67;2.80;;;14.60;99.90;;;;;;5076797;28;20246;-72
2022/10/11 12:44:32;;;;;;;5.43;2.70;;;14.60;99.90;;;;;;5058669;28;20182;-72
2022/10/11 12:47:24;;;;;;;5.83;2.83;;;14.60;99.90;;;;;;5076449;28;20196;-72
2022/10/11 12:50:15;;;;;;;8.43;2.73;;;14.60;99.90;;;;;;5076396;28;20211;-72
2022/10/11 12:53:02;;;;;;;5.80;2.63;;;14.50;99.90;;;;;;5076298;28;20183;-72
2022/10/11 12:55:44;;;;;;;6.27;2.70;;;14.40;99.90;;;;;;5075765;28;20199;-71
2022/10/11 12:58:26;;;;;;;6.53;2.87;;;14.40;99.90;;;;;;5076645;28;20344;-72
2022/10/11 13:00:56;;;;;;;6.27;2.10;;;14.40;99.90;;;;;;5075919;28;20560;-73
2022/10/11 13:03:51;;;;;;;5.27;2.83;;;14.40;99.90;;;;;;5076229;28;20179;-73
2022/10/11 13:06:25;;;;;;;8.33;2.73;;;14.30;99.90;;;;;;5076283;28;20176;-73
2022/10/11 13:08:55;;;;;;;5.10;2.60;;;14.20;99.90;;;;;;5076076;28;20192;-73
2022/10/11 13:11:31;;;;;;;7.73;2.53;;;14.10;99.90;;;;;;5075992;28;20254;-73
2022/10/11 13:14:05;;;;;;;5.27;2.20;;;13.90;99.90;;;;;;5075285;28;20164;-73
2022/10/11 13:17:02;;;;;;;6.33;2.97;;;13.80;99.90;;;;;;5075965;28;20197;-73
2022/10/11 13:19:32;;;;;;;5.63;2.67;;;13.70;99.90;;;;;;5049682;28;20585;-72
2022/10/11 13:22:03;;;;;;;4.00;2.37;;;13.60;99.90;;;;;;5075967;28;20184;-73